Time;durP1;ratioP1;P1;durP2;ratioP2;P2;SDS_P1;SDS_P2;PMS_P1;PMS_P2;Temp;Humidity;BMP_temperature;BMP_pressure;BME280_temperature;BME280_humidity;BME280_pressure;Samples;Min_cycle;Max_cycle;Signal;HPM_P1;HPM_P2
2022/05/03 00:00:10;;;;;;;15.17;8.13;;;;;;;8.83;78.45;100202.73;1418090;91;21364;-88
2022/05/03 00:03:01;;;;;;;9.63;7.50;;;;;;;8.79;79.48;100204.00;1424893;91;21388;-88
2022/05/03 00:06:05;;;;;;;16.30;9.17;;;;;;;8.71;79.46;100199.41;1425038;90;21444;-87
2022/05/03 00:08:55;;;;;;;11.13;7.83;;;;;;;8.66;79.28;100198.17;1421575;91;21459;-87
2022/05/03 00:11:58;;;;;;;12.83;7.97;;;;;;;8.57;79.43;100204.66;1418872;91;21511;-88
2022/05/03 00:14:28;;;;;;;9.43;7.00;;;;;;;8.53;79.36;100197.98;1408525;91;21458;-88
2022/05/03 00:16:56;;;;;;;11.65;7.78;;;;;;;8.53;79.25;100193.20;1424042;91;21557;-89
2022/05/03 00:19:23;;;;;;;11.20;7.70;;;;;;;8.53;79.05;100195.34;1407641;91;21408;-89
2022/05/03 00:21:49;;;;;;;10.60;7.10;;;;;;;8.55;79.34;100201.33;1429373;91;21356;-88
2022/05/03 00:24:16;;;;;;;12.13;7.87;;;;;;;8.57;78.86;100202.02;1425200;91;21385;-89
2022/05/03 00:26:43;;;;;;;10.33;7.70;;;;;;;8.57;78.44;100205.12;1440571;90;21571;-87
2022/05/03 00:29:10;;;;;;;17.30;7.53;;;;;;;8.51;79.19;100203.05;1431143;90;23136;-87
2022/05/03 00:31:37;;;;;;;15.23;9.03;;;;;;;8.46;79.15;100200.84;1428227;91;22423;-88
2022/05/03 00:34:05;;;;;;;16.03;8.27;;;;;;;8.44;79.52;100201.47;1426495;91;21541;-87
2022/05/03 00:36:31;;;;;;;12.17;9.10;;;;;;;8.41;80.25;100204.38;1427645;91;21394;-87
2022/05/03 00:38:57;;;;;;;12.73;7.93;;;;;;;8.41;79.41;100197.78;1408789;91;21416;-87
2022/05/03 00:41:35;;;;;;;22.53;9.07;;;;;;;8.44;79.11;100201.47;1423826;91;22055;-86
2022/05/03 00:44:58;;;;;;;13.50;8.10;;;;;;;8.48;80.18;100199.38;1424627;91;21406;-87
2022/05/03 00:48:04;;;;;;;10.47;7.90;;;;;;;8.47;81.42;100197.23;1374998;95;21440;-87
2022/05/03 00:50:47;;;;;;;16.53;9.50;;;;;;;8.49;80.12;100199.25;1424752;91;23397;-88
2022/05/03 00:53:28;;;;;;;17.03;8.47;;;;;;;8.51;80.24;100197.77;1428323;91;22370;-87
2022/05/03 00:56:49;;;;;;;21.93;9.15;;;;;;;8.46;81.89;100206.13;1414319;91;21609;-88
2022/05/03 00:59:46;;;;;;;13.63;8.93;;;;;;;8.36;81.70;100199.97;1415647;91;21394;-88
2022/05/03 01:02:16;;;;;;;14.30;7.63;;;;;;;8.27;81.28;100195.05;1425021;90;21434;-88
2022/05/03 01:05:06;;;;;;;12.17;7.63;;;;;;;8.24;81.56;100199.27;1418773;91;21342;-88
2022/05/03 01:07:36;;;;;;;12.23;7.15;;;;;;;8.20;81.50;100198.36;1429770;90;21637;-87
2022/05/03 01:10:34;;;;;;;14.87;7.63;;;;;;;8.19;80.56;100204.61;1423525;91;22498;-89
2022/05/03 01:13:11;;;;;;;12.30;8.10;;;;;;;8.19;81.06;100203.30;1423338;91;21660;-88
2022/05/03 01:15:41;;;;;;;10.87;7.97;;;;;;;8.17;81.10;100207.41;1426500;90;23548;-87
2022/05/03 01:18:43;;;;;;;12.13;7.90;;;;;;;8.11;81.97;100203.97;1418615;90;22406;-89
2022/05/03 01:21:54;;;;;;;12.90;8.60;;;;;;;8.07;81.17;100202.10;1422461;91;21564;-88
2022/05/03 01:24:34;;;;;;;13.53;8.70;;;;;;;8.03;82.59;100206.48;1419311;91;21575;-87
2022/05/03 01:27:15;;;;;;;10.00;8.30;;;;;;;7.95;82.53;100203.20;1422080;90;22431;-86
2022/05/03 01:29:45;;;;;;;10.72;7.55;;;;;;;7.94;81.81;100204.18;1426337;91;22458;-86
2022/05/03 01:32:12;;;;;;;14.20;7.17;;;;;;;7.95;81.53;100200.56;1424464;91;22501;-87
2022/05/03 01:34:42;;;;;;;17.13;8.33;;;;;;;7.99;81.08;100200.63;1424083;91;23366;-87
2022/05/03 01:37:32;;;;;;;10.55;8.03;;;;;;;8.03;80.98;100205.99;1428941;91;22321;-88
2022/05/03 01:40:06;;;;;;;8.83;7.33;;;;;;;8.00;81.11;100198.36;1417707;90;22374;-88
2022/05/03 01:42:59;;;;;;;12.93;7.50;;;;;;;8.00;81.18;100208.05;1422541;91;21320;-87
2022/05/03 01:46:00;;;;;;;12.93;7.83;;;;;;;7.95;81.09;100204.52;1426503;91;21554;-86
2022/05/03 01:52:31;;;;;;;11.93;8.30;;;;;;;7.93;81.04;100201.17;1420747;90;21527;-86
2022/05/03 01:55:03;;;;;;;10.10;6.90;;;;;;;7.89;81.42;100201.11;1428438;91;22597;-87
2022/05/03 01:57:47;;;;;;;10.87;7.23;;;;;;;7.89;81.01;100199.80;1430907;91;21410;-86
2022/05/03 02:00:13;;;;;;;18.03;9.53;;;;;;;7.91;80.76;100201.78;1424316;90;21416;-88
2022/05/03 02:03:05;;;;;;;12.60;7.30;;;;;;;7.93;80.73;100202.49;1429003;91;21365;-87
2022/05/03 02:06:12;;;;;;;11.20;7.80;;;;;;;7.93;80.40;100205.12;1430982;91;22413;-89
2022/05/03 02:09:05;;;;;;;13.63;8.13;;;;;;;7.93;80.24;100201.17;1430852;91;21616;-88
2022/05/03 02:11:49;;;;;;;13.43;8.40;;;;;;;7.88;81.03;100202.06;1413936;91;21409;-88
2022/05/03 02:14:44;;;;;;;11.60;7.40;;;;;;;7.83;80.61;100197.70;1425158;90;21342;-88
2022/05/03 02:17:47;;;;;;;11.37;7.23;;;;;;;7.81;80.12;100193.05;1384997;93;22436;-87
2022/05/03 02:20:30;;;;;;;10.47;7.50;;;;;;;7.78;80.83;100200.73;1425385;91;21386;-88
2022/05/03 02:23:31;;;;;;;9.83;7.77;;;;;;;7.74;82.02;100195.86;1432111;90;21586;-88
2022/05/03 02:26:29;;;;;;;11.35;8.25;;;;;;;7.67;82.25;100192.45;1427173;91;21438;-89
2022/05/03 02:29:08;;;;;;;9.77;7.70;;;;;;;7.66;81.85;100203.97;1414323;91;21561;-88
2022/05/03 02:31:51;;;;;;;11.73;8.70;;;;;;;7.64;82.14;100197.98;1418954;91;21549;-90
2022/05/03 02:34:47;;;;;;;10.67;8.47;;;;;;;7.54;82.15;100194.51;1432449;90;21416;-90
2022/05/03 02:37:20;;;;;;;11.93;8.20;;;;;;;7.54;82.15;100194.51;1429741;90;21505;-88
2022/05/03 02:40:00;;;;;;;9.03;7.13;;;;;;;7.59;81.38;100198.87;1396847;91;22596;-87
2022/05/03 02:42:27;;;;;;;12.00;7.97;;;;;;;7.61;81.32;100196.94;1429450;91;21526;-88
2022/05/03 02:44:56;;;;;;;12.03;7.63;;;;;;;7.66;80.89;100205.28;1427809;91;22400;-87
2022/05/03 02:47:46;;;;;;;11.23;6.93;;;;;;;7.66;80.73;100203.03;1419610;91;21489;-87
2022/05/03 02:50:18;;;;;;;14.13;8.63;;;;;;;7.62;80.34;100203.03;1429073;91;21401;-88
2022/05/03 02:53:05;;;;;;;14.43;9.00;;;;;;;7.55;81.19;100196.16;1410555;91;21534;-87
2022/05/03 02:55:41;;;;;;;11.20;8.27;;;;;;;7.48;81.64;100188.92;1427609;91;21546;-88
2022/05/03 02:58:16;;;;;;;13.07;7.93;;;;;;;7.49;80.81;100194.56;1435492;91;22443;-87
2022/05/03 03:04:48;;;;;;;13.37;8.40;;;;;;;7.51;81.07;100201.36;1416209;91;21401;-87
2022/05/03 03:07:19;;;;;;;11.00;7.90;;;;;;;7.52;81.66;100203.50;1426001;91;21593;-90
2022/05/03 03:09:52;;;;;;;14.87;7.62;;;;;;;7.46;82.37;100208.82;1426358;91;22575;-87
2022/05/03 03:12:54;;;;;;;10.60;7.90;;;;;;;7.38;82.50;100209.95;1436089;90;21535;-87
2022/05/03 03:15:29;;;;;;;10.57;7.43;;;;;;;7.31;82.75;100210.98;1435399;91;21592;-88
2022/05/03 03:17:59;;;;;;;12.33;7.90;;;;;;;7.22;82.92;100206.48;1432152;91;21379;-87
2022/05/03 03:20:28;;;;;;;13.15;8.98;;;;;;;7.17;83.27;100212.16;1417237;91;21400;-86
2022/05/03 03:22:55;;;;;;;14.20;8.50;;;;;;;7.15;82.85;100206.18;1434733;91;21457;-87
2022/05/03 03:25:23;;;;;;;10.23;7.23;;;;;;;7.17;83.05;100212.64;1425542;89;21362;-87
2022/05/03 03:27:52;;;;;;;11.40;6.63;;;;;;;7.19;83.21;100212.87;1427039;91;21406;-87
2022/05/03 03:30:20;;;;;;;9.73;7.03;;;;;;;7.22;82.80;100206.48;1432320;91;21451;-87
2022/05/03 03:32:57;;;;;;;11.07;7.53;;;;;;;7.25;82.52;100204.93;1434112;91;21401;-86
2022/05/03 03:35:25;;;;;;;11.33;8.73;;;;;;;7.28;82.55;100207.75;1425373;89;21497;-87
2022/05/03 03:37:52;;;;;;;10.80;8.07;;;;;;;7.28;82.01;100207.30;1435312;91;21491;-87
2022/05/03 03:40:20;;;;;;;14.53;8.70;;;;;;;7.29;82.59;100208.12;1434023;91;22385;-86
2022/05/03 03:42:49;;;;;;;15.67;9.57;;;;;;;7.28;82.88;100209.93;1434927;91;21378;-86
2022/05/03 03:45:17;;;;;;;14.60;9.37;;;;;;;7.30;82.64;100215.88;1431299;91;21398;-87
2022/05/03 03:47:47;;;;;;;13.77;8.43;;;;;;;7.35;82.19;100216.81;1431438;91;21363;-88
2022/05/03 03:50:14;;;;;;;10.60;8.15;;;;;;;7.41;81.99;100217.59;1433479;91;21438;-87
2022/05/03 03:52:46;;;;;;;10.67;7.93;;;;;;;7.49;81.78;100223.52;1425861;89;22635;-87
2022/05/03 03:55:14;;;;;;;13.63;8.40;;;;;;;7.52;81.91;100222.77;1411291;91;21545;-87
2022/05/03 03:57:41;;;;;;;13.07;9.27;;;;;;;7.55;81.42;100223.81;1433939;90;21408;-88
2022/05/03 04:00:13;;;;;;;19.23;10.23;;;;;;;7.55;82.56;100219.87;1430829;90;21416;-88
2022/05/03 04:02:45;;;;;;;16.20;10.80;;;;;;;7.59;82.77;100225.69;1429369;90;21482;-88
2022/05/03 04:05:23;;;;;;;16.80;9.47;;;;;;;7.67;82.64;100225.38;1421781;89;21877;-88
2022/05/03 04:07:51;;;;;;;14.87;8.53;;;;;;;7.79;82.82;100223.95;1429618;89;22368;-86
2022/05/03 04:10:18;;;;;;;15.60;9.00;;;;;;;7.92;82.43;100239.05;1433936;89;21364;-89
2022/05/03 04:12:44;;;;;;;15.53;9.37;;;;;;;8.08;82.46;100241.14;1433312;89;21394;-89
2022/05/03 04:15:11;;;;;;;13.80;9.00;;;;;;;8.21;82.83;100243.55;1411928;91;21512;-88
2022/05/03 04:17:37;;;;;;;12.10;9.07;;;;;;;8.27;82.58;100237.23;1393546;91;21531;-91
2022/05/03 04:20:04;;;;;;;16.70;10.60;;;;;;;8.37;81.81;100234.59;1432088;90;21394;-90
2022/05/03 04:22:33;;;;;;;15.83;9.30;;;;;;;8.48;81.44;100236.30;1424616;91;21402;-91
2022/05/03 04:25:01;;;;;;;17.77;11.37;;;;;;;8.56;81.15;100241.22;1448500;90;21476;-87
2022/05/03 04:27:28;;;;;;;12.70;9.50;;;;;;;8.67;80.73;100244.22;1428371;91;21398;-86
2022/05/03 04:29:55;;;;;;;12.43;9.50;;;;;;;8.78;80.74;100243.24;1431385;91;22371;-88
2022/05/03 04:32:22;;;;;;;15.23;8.17;;;;;;;8.88;80.25;100242.73;1430211;90;22628;-87
2022/05/03 04:34:49;;;;;;;10.93;8.10;;;;;;;8.87;79.85;100241.08;1429790;90;21586;-88
2022/05/03 04:37:15;;;;;;;11.47;9.30;;;;;;;8.94;79.49;100243.97;1435906;91;21453;-87
2022/05/03 04:39:42;;;;;;;15.17;9.53;;;;;;;9.04;79.49;100242.98;1422780;90;22589;-88
2022/05/03 04:42:10;;;;;;;14.27;9.43;;;;;;;9.16;79.28;100246.78;1432384;91;22569;-88
2022/05/03 04:44:36;;;;;;;12.80;9.77;;;;;;;9.25;79.20;100240.64;1436363;89;21326;-89
2022/05/03 04:47:03;;;;;;;13.53;10.33;;;;;;;9.35;79.52;100238.81;1408264;89;23524;-87
2022/05/03 04:49:30;;;;;;;16.37;10.40;;;;;;;9.43;79.15;100242.03;1434719;91;21371;-86
2022/05/03 04:51:56;;;;;;;14.37;10.73;;;;;;;9.56;79.06;100243.87;1433225;90;21357;-87
2022/05/03 04:54:23;;;;;;;12.73;8.50;;;;;;;9.68;79.03;100239.23;1430963;90;21475;-89
2022/05/03 04:57:01;;;;;;;20.43;9.50;;;;;;;9.79;78.63;100235.07;1433481;91;22461;-90
2022/05/03 04:59:27;;;;;;;15.23;9.50;;;;;;;9.92;78.62;100235.54;1433848;91;21452;-88
2022/05/03 05:01:53;;;;;;;16.27;9.17;;;;;;;10.04;78.38;100238.84;1414805;91;22280;-88
2022/05/03 05:04:20;;;;;;;26.60;10.13;;;;;;;10.20;78.43;100232.88;1434163;91;21349;-90
2022/05/03 05:06:46;;;;;;;18.67;9.70;;;;;;;10.39;78.04;100234.59;1440036;91;21408;-90
2022/05/03 05:09:12;;;;;;;14.90;9.77;;;;;;;10.56;77.68;100231.61;1424265;89;21387;-89
2022/05/03 05:11:38;;;;;;;15.10;9.30;;;;;;;10.70;77.05;100237.65;1426818;91;21460;-89
2022/05/03 05:14:04;;;;;;;15.03;9.53;;;;;;;10.87;76.94;100237.29;1428100;89;22267;-89
2022/05/03 05:16:31;;;;;;;13.07;8.47;;;;;;;11.03;76.42;100235.27;1429634;91;21350;-89
2022/05/03 05:18:57;;;;;;;15.43;7.43;;;;;;;11.17;75.35;100231.22;1418809;91;21571;-90
2022/05/03 05:21:23;;;;;;;13.20;8.07;;;;;;;11.26;74.40;100227.63;1394377;91;21569;-90
2022/05/03 05:23:49;;;;;;;14.97;9.07;;;;;;;11.47;74.59;100228.06;1414616;91;21446;-92
2022/05/03 05:26:15;;;;;;;10.33;8.30;;;;;;;11.61;73.12;100230.62;1431851;91;21380;-91
2022/05/03 05:28:41;;;;;;;13.70;8.80;;;;;;;11.64;70.61;100226.31;1427583;89;21527;-89
2022/05/03 05:31:08;;;;;;;11.17;8.60;;;;;;;11.79;71.62;100229.69;1413897;89;21461;-86
2022/05/03 05:33:34;;;;;;;10.97;7.97;;;;;;;11.82;70.89;100220.09;1424001;91;22440;-87
2022/05/03 05:36:00;;;;;;;16.00;9.60;;;;;;;11.94;70.64;100221.50;1410200;91;21563;-87
2022/05/03 05:38:26;;;;;;;9.40;7.53;;;;;;;12.09;70.95;100221.20;1421638;91;21513;-86
2022/05/03 05:40:52;;;;;;;10.57;7.80;;;;;;;12.16;70.30;100216.89;1419146;89;21983;-91
2022/05/03 05:43:18;;;;;;;10.43;7.77;;;;;;;12.35;70.72;100221.58;1428698;90;21564;-85
2022/05/03 05:45:45;;;;;;;11.17;8.13;;;;;;;12.48;70.43;100224.56;1427854;90;21312;-85
2022/05/03 05:48:15;;;;;;;15.03;7.43;;;;;;;12.56;69.17;100227.73;1424640;91;22257;-85
2022/05/03 05:50:42;;;;;;;15.15;7.53;;;;;;;12.71;69.72;100226.06;1427274;91;21350;-85
2022/05/03 05:55:53;;;;;;;9.20;7.20;;;;;;;13.07;68.31;100231.86;1417234;90;22297;-85
2022/05/03 05:58:20;;;;;;;11.33;7.90;;;;;;;13.19;67.39;100236.31;1426155;90;21615;-87
2022/05/03 06:00:46;;;;;;;12.23;7.53;;;;;;;13.36;67.85;100230.50;1425933;91;21402;-86
2022/05/03 06:03:14;;;;;;;13.13;9.83;;;;;;;13.52;67.35;100230.45;1425518;91;21489;-88
2022/05/03 06:05:40;;;;;;;9.83;7.67;;;;;;;13.62;65.87;100236.06;1422667;90;21409;-84
2022/05/03 06:08:07;;;;;;;11.70;8.73;;;;;;;13.73;65.34;100229.88;1422442;90;21438;-85
2022/05/03 06:10:33;;;;;;;14.53;8.63;;;;;;;13.93;65.86;100227.62;1428124;90;21564;-85
2022/05/03 06:13:01;;;;;;;12.27;7.30;;;;;;;14.13;65.87;100233.33;1426963;91;21660;-85
2022/05/03 06:15:27;;;;;;;12.40;7.87;;;;;;;14.27;65.47;100230.90;1427542;90;21483;-85
2022/05/03 06:17:53;;;;;;;10.87;8.20;;;;;;;14.43;64.87;100227.63;1427087;91;21342;-85
2022/05/03 06:20:20;;;;;;;14.00;8.00;;;;;;;14.48;62.83;100230.28;1426507;90;22495;-85
2022/05/03 06:22:46;;;;;;;10.27;7.27;;;;;;;14.64;63.43;100227.02;1425951;90;21291;-86
2022/05/03 06:25:12;;;;;;;17.23;7.27;;;;;;;14.74;61.12;100229.43;1412431;91;21461;-86
2022/05/03 06:27:39;;;;;;;11.00;7.30;;;;;;;14.83;62.47;100229.67;1421946;91;21534;-85
2022/05/03 06:30:08;;;;;;;9.93;7.07;;;;;;;14.83;61.33;100238.18;1417035;91;21527;-89
2022/05/03 06:32:39;;;;;;;11.77;7.83;;;;;;;14.86;60.89;100232.48;1424098;90;21467;-88
2022/05/03 06:35:07;;;;;;;12.93;6.93;;;;;;;14.97;61.25;100240.05;1431863;91;21476;-88
2022/05/03 06:37:37;;;;;;;14.47;10.13;;;;;;;15.11;61.15;100235.77;1427879;91;21364;-88
2022/05/03 06:40:08;;;;;;;12.47;7.55;;;;;;;15.24;60.77;100233.78;1429866;91;21431;-87
2022/05/03 06:42:37;;;;;;;12.23;7.67;;;;;;;15.30;58.96;100243.72;1428131;90;23215;-83
2022/05/03 06:45:08;;;;;;;8.57;7.03;;;;;;;15.31;57.95;100233.39;1424590;91;22805;-84
2022/05/03 06:47:34;;;;;;;16.00;8.13;;;;;;;15.44;59.20;100233.56;1412753;91;21334;-83
2022/05/03 06:50:01;;;;;;;12.90;7.20;;;;;;;15.57;59.27;100232.94;1429567;91;21431;-82
2022/05/03 06:52:27;;;;;;;10.03;7.43;;;;;;;15.61;57.04;100240.87;1424141;91;22508;-84
2022/05/03 06:54:54;;;;;;;10.07;7.07;;;;;;;15.74;58.86;100238.94;1420942;91;22023;-83
